createdAt,value
2023-03-05T00:02:27.493Z,100457.16
2023-03-05T00:05:34.519Z,100464.66
2023-03-05T00:08:41.806Z,100457.94
2023-03-05T00:11:47.059Z,100447.06
2023-03-05T00:14:52.283Z,100444.53
2023-03-05T00:17:57.637Z,100457.09
2023-03-05T00:21:03.017Z,100448.72
2023-03-05T00:24:12.590Z,100452.91
2023-03-05T00:27:17.890Z,100451.19
2023-03-05T00:30:22.995Z,100457.06
2023-03-05T00:33:27.854Z,100446.16
2023-03-05T00:36:36.111Z,100449.47
2023-03-05T00:39:42.651Z,100449.53
2023-03-05T00:42:48.653Z,100447.88
2023-03-05T00:45:53.960Z,100450.28
2023-03-05T00:48:59.528Z,100447.81
2023-03-05T00:52:05.126Z,100453.69
2023-03-05T00:55:12.410Z,100455.25
2023-03-05T00:58:17.744Z,100452.84
2023-03-05T01:01:23.521Z,100444.41
2023-03-05T01:04:28.374Z,100444.28
2023-03-05T01:07:33.930Z,100441.84
2023-03-05T01:10:42.158Z,100430.19
2023-03-05T01:13:47.935Z,100449.41
2023-03-05T01:16:52.995Z,100440.94
2023-03-05T01:19:58.350Z,100430.94
2023-03-05T01:23:03.682Z,100418.38
2023-03-05T01:26:10.248Z,100416.63
2023-03-05T01:29:15.337Z,100423.31
2023-03-05T01:32:20.706Z,100411.66
2023-03-05T01:35:27.197Z,100407.47
2023-03-05T01:38:32.432Z,100413.25
2023-03-05T01:41:39.709Z,100410.72
2023-03-05T01:45:03.722Z,100411.63
2023-03-05T01:48:09.280Z,100403.13
2023-03-05T01:51:14.988Z,100407.28
2023-03-05T01:54:21.796Z,100398.22
2023-03-05T01:57:34.102Z,100402.28
2023-03-05T02:00:42.813Z,100402.28
2023-03-05T02:03:48.732Z,100398.94
2023-03-05T02:06:54.735Z,100400.63
2023-03-05T02:09:59.842Z,100391.94
2023-03-05T02:13:08.205Z,100388.72
2023-03-05T02:16:14.955Z,100394.47
2023-03-05T02:19:20.311Z,100393.63
2023-03-05T02:22:27.224Z,100390.28
2023-03-05T02:25:32.570Z,100395.38
2023-03-05T02:28:40.269Z,100394.44
2023-03-05T02:31:45.959Z,100381.09
2023-03-05T02:34:51.065Z,100379.28
2023-03-05T02:37:58.025Z,100390.16
2023-03-05T02:41:03.447Z,100382.69
2023-03-05T02:44:08.537Z,100374.28
2023-03-05T02:47:16.515Z,100371.78
2023-03-05T02:50:22.087Z,100370.06
2023-03-05T02:53:28.614Z,100377.63
2023-03-05T02:56:34.453Z,100375.06
2023-03-05T02:59:40.209Z,100367.63
2023-03-05T03:02:47.880Z,100370.94
2023-03-05T03:05:52.968Z,100364.28
2023-03-05T03:08:59.719Z,100363.34
2023-03-05T03:12:05.286Z,100355.09
2023-03-05T03:15:12.825Z,100360.00
2023-03-05T03:18:18.068Z,100354.25
2023-03-05T03:21:25.099Z,100349.88
2023-03-05T03:24:33.132Z,100354.97
2023-03-05T03:27:38.352Z,100349.91
2023-03-05T03:30:45.834Z,100348.28
2023-03-05T03:33:50.932Z,100347.41
2023-03-05T03:36:56.190Z,100343.34
2023-03-05T03:40:02.764Z,100338.22
2023-03-05T03:43:08.105Z,100333.25
2023-03-05T03:46:13.531Z,100332.50
2023-03-05T03:49:21.381Z,100329.16
2023-03-05T03:52:26.689Z,100332.41
2023-03-05T03:55:33.272Z,100324.91
2023-03-05T03:58:38.712Z,100333.09
2023-03-05T04:01:44.316Z,100319.09
2023-03-05T04:04:49.120Z,100316.38
2023-03-05T04:07:54.819Z,100317.34
2023-03-05T04:11:02.811Z,100315.63
2023-03-05T04:14:08.287Z,100316.50
2023-03-05T04:17:13.859Z,100308.06
2023-03-05T04:20:19.226Z,100311.25
2023-03-05T04:23:42.552Z,100311.31
2023-03-05T04:26:49.419Z,100311.34
2023-03-05T04:29:54.560Z,100304.56
2023-03-05T04:32:59.975Z,100310.53
2023-03-05T04:36:05.175Z,100303.81
2023-03-05T04:39:10.823Z,100311.38
2023-03-05T04:42:18.571Z,100298.81
2023-03-05T04:45:23.776Z,100298.72
2023-03-05T04:48:28.902Z,100287.03
2023-03-05T04:51:34.220Z,100287.88
2023-03-05T04:54:39.360Z,100289.56
2023-03-05T04:57:46.056Z,100282.88
2023-03-05T05:00:51.130Z,100282.06
2023-03-05T05:03:56.620Z,100286.94
2023-03-05T05:07:01.974Z,100270.34
2023-03-05T05:10:08.504Z,100283.50
2023-03-05T05:13:15.021Z,100271.06
2023-03-05T05:16:24.222Z,100271.09
2023-03-05T05:19:29.517Z,100281.88
2023-03-05T05:22:35.217Z,100266.91
2023-03-05T05:25:40.275Z,100267.84
2023-03-05T05:28:47.185Z,100273.75
2023-03-05T05:31:54.222Z,100262.91
2023-03-05T05:35:00.438Z,100274.53
2023-03-05T05:38:05.525Z,100272.91
2023-03-05T05:41:12.108Z,100272.91
2023-03-05T05:44:18.648Z,100266.38
2023-03-05T05:47:23.823Z,100276.03
2023-03-05T05:50:28.904Z,100275.38
2023-03-05T05:53:34.159Z,100266.16
2023-03-05T05:56:39.333Z,100263.69
2023-03-05T05:59:45.965Z,100259.47
2023-03-05T06:02:51.227Z,100257.91
2023-03-05T06:05:56.400Z,100265.41
2023-03-05T06:09:01.562Z,100263.09
2023-03-05T06:12:07.854Z,100259.66
2023-03-05T06:15:16.827Z,100254.63
2023-03-05T06:18:21.961Z,100262.25
2023-03-05T06:21:26.881Z,100252.31
2023-03-05T06:24:31.999Z,100263.31
2023-03-05T06:27:37.536Z,100254.06
2023-03-05T06:30:44.418Z,100252.44
2023-03-05T06:33:50.034Z,100264.16
2023-03-05T06:36:55.198Z,100264.19
2023-03-05T06:40:00.586Z,100251.75
2023-03-05T06:43:05.720Z,100250.16
2023-03-05T06:46:14.602Z,100258.50
2023-03-05T06:49:19.742Z,100254.28
2023-03-05T06:52:25.010Z,100251.03
2023-03-05T06:55:30.348Z,100250.25
2023-03-05T06:58:35.463Z,100239.34
2023-03-05T07:01:42.138Z,100248.56
2023-03-05T07:04:48.002Z,100243.44
2023-03-05T07:07:53.125Z,100253.56
2023-03-05T07:10:58.304Z,100238.66
2023-03-05T07:14:03.547Z,100249.50
2023-03-05T07:17:10.195Z,100241.25
2023-03-05T07:20:15.536Z,100249.53
2023-03-05T07:23:20.691Z,100248.03
2023-03-05T07:26:25.845Z,100243.00
2023-03-05T07:29:31.139Z,100238.09
2023-03-05T07:32:38.965Z,100231.50
2023-03-05T07:35:44.266Z,100231.56
2023-03-05T07:38:49.657Z,100228.19
2023-03-05T07:41:54.765Z,100224.97
2023-03-05T07:45:08.110Z,100224.25
2023-03-05T07:48:20.947Z,100215.06
2023-03-05T07:51:27.578Z,100220.97
2023-03-05T07:54:33.038Z,100212.63
2023-03-05T07:57:39.363Z,100213.44
2023-03-05T08:00:44.512Z,100216.84
2023-03-05T08:03:51.181Z,100209.34
2023-03-05T08:06:56.334Z,100205.25
2023-03-05T08:10:01.423Z,100209.44
2023-03-05T08:13:07.121Z,100215.31
2023-03-05T08:16:15.361Z,100205.34
2023-03-05T08:19:22.444Z,100209.53
2023-03-05T08:22:27.534Z,100205.38
2023-03-05T08:25:32.807Z,100197.16
2023-03-05T08:28:38.199Z,100197.97
2023-03-05T08:31:47.414Z,100180.41
2023-03-05T08:34:58.625Z,100181.28
2023-03-05T08:38:03.763Z,100181.28
2023-03-05T08:41:10.199Z,100177.09
2023-03-05T08:44:15.417Z,100168.72
2023-03-05T08:47:21.174Z,100162.00
2023-03-05T08:50:27.810Z,100168.69
2023-03-05T08:53:32.660Z,100155.25
2023-03-05T08:56:38.097Z,100149.41
2023-03-05T08:59:42.973Z,100137.72
2023-03-05T09:02:48.174Z,100145.25
2023-03-05T09:05:55.121Z,100153.63
2023-03-05T09:09:00.220Z,100156.13
2023-03-05T09:12:05.914Z,100155.25
2023-03-05T09:15:12.682Z,100161.97
2023-03-05T09:18:17.790Z,100160.25
2023-03-05T09:21:24.354Z,100159.41
2023-03-05T09:24:29.596Z,100161.13
2023-03-05T09:27:35.532Z,100158.63
2023-03-05T09:30:40.724Z,100147.75
2023-03-05T09:33:45.944Z,100151.97
2023-03-05T09:36:53.112Z,100141.91
2023-03-05T09:39:58.523Z,100141.91
2023-03-05T09:43:07.372Z,100131.00
2023-03-05T09:46:25.532Z,100135.19
2023-03-05T09:49:46.393Z,100130.16
2023-03-05T09:52:57.251Z,100131.00
2023-03-05T09:56:05.006Z,100125.16
2023-03-05T09:59:22.584Z,100124.28
2023-03-05T10:02:31.206Z,100120.94
2023-03-05T10:06:01.992Z,100122.63
2023-03-05T10:09:16.063Z,100137.69
2023-03-05T10:12:27.811Z,100125.09
2023-03-05T10:15:40.543Z,100123.44
2023-03-05T10:18:52.406Z,100124.28
2023-03-05T10:22:10.213Z,100138.53
2023-03-05T10:25:24.499Z,100136.00
2023-03-05T10:28:36.790Z,100131.00
2023-03-05T10:31:59.760Z,100125.97
2023-03-05T10:35:32.745Z,100124.31
2023-03-05T10:39:01.857Z,100108.38
2023-03-05T10:42:16.954Z,100107.53
2023-03-05T10:45:25.538Z,100101.69
2023-03-05T10:48:37.278Z,100108.38
2023-03-05T10:51:45.732Z,100110.06
2023-03-05T10:54:51.705Z,100115.09
2023-03-05T10:57:58.447Z,100114.25
2023-03-05T11:01:08.083Z,100096.63
2023-03-05T11:04:28.993Z,100096.66
2023-03-05T11:07:38.854Z,100094.13
2023-03-05T11:10:44.071Z,100100.00
2023-03-05T11:14:01.037Z,100091.63
2023-03-05T11:17:25.797Z,100097.44
2023-03-05T11:20:34.634Z,100084.03
2023-03-05T11:23:40.133Z,100079.84
2023-03-05T11:26:50.603Z,100078.97
2023-03-05T11:29:56.804Z,100082.31
2023-03-05T11:33:14.809Z,100068.84
2023-03-05T11:36:27.879Z,100070.53
2023-03-05T11:39:35.386Z,100069.56
2023-03-05T11:42:40.885Z,100066.97
2023-03-05T11:45:49.274Z,100066.03
2023-03-05T11:48:55.854Z,100064.34
2023-03-05T11:52:07.005Z,100064.25
2023-03-05T11:55:17.340Z,100062.66
2023-03-05T11:58:32.903Z,100064.22
2023-03-05T12:01:44.948Z,100064.84
2023-03-05T12:04:51.388Z,100069.19
2023-03-05T12:07:59.711Z,100072.00
2023-03-05T12:11:09.277Z,100068.56
2023-03-05T12:14:20.926Z,100064.22
2023-03-05T12:17:33.096Z,100065.81
2023-03-05T12:20:43.469Z,100054.84
2023-03-05T12:23:52.147Z,100071.06
2023-03-05T12:27:07.319Z,100065.78
2023-03-05T12:31:05.701Z,100061.47
2023-03-05T12:34:52.571Z,100063.25
2023-03-05T12:38:24.181Z,100053.53
2023-03-05T12:41:40.529Z,100051.72
2023-03-05T12:44:45.774Z,100055.00
2023-03-05T12:48:44.338Z,100042.38
2023-03-05T12:51:51.522Z,100054.19
2023-03-05T12:55:20.298Z,100070.47
2023-03-05T12:58:35.295Z,100057.09
2023-03-05T13:01:43.668Z,100062.75
2023-03-05T13:04:49.205Z,100071.19
2023-03-05T13:07:54.460Z,100066.22
2023-03-05T13:11:02.372Z,100052.78
2023-03-05T13:14:33.841Z,100066.19
2023-03-05T13:17:41.937Z,100063.59
2023-03-05T13:20:50.900Z,100064.38
2023-03-05T13:23:59.210Z,100072.00
2023-03-05T13:27:21.490Z,100067.88
2023-03-05T13:30:28.844Z,100057.06
2023-03-05T13:33:35.512Z,100070.41
2023-03-05T13:36:40.737Z,100059.56
2023-03-05T13:39:50.285Z,100058.84
2023-03-05T13:42:56.955Z,100063.03
2023-03-05T13:46:02.405Z,100066.44
2023-03-05T13:49:23.167Z,100047.09
2023-03-05T13:52:29.890Z,100058.84
2023-03-05T13:55:35.471Z,100055.44
2023-03-05T13:58:49.722Z,100057.16
2023-03-05T14:01:55.317Z,100054.75
2023-03-05T14:05:00.791Z,100058.03
2023-03-05T14:08:06.230Z,100052.97
2023-03-05T14:11:16.083Z,100049.56
2023-03-05T14:14:25.143Z,100042.91
2023-03-05T14:17:41.567Z,100049.56
2023-03-05T14:21:04.764Z,100045.41
2023-03-05T14:24:14.932Z,100064.75
2023-03-05T14:27:22.057Z,100052.13
2023-03-05T14:30:30.964Z,100059.78
2023-03-05T14:33:36.766Z,100050.59
2023-03-05T14:36:41.929Z,100060.59
2023-03-05T14:39:51.130Z,100046.34
2023-03-05T14:42:57.314Z,100048.81
2023-03-05T14:46:03.917Z,100050.53
2023-03-05T14:49:09.179Z,100070.69
2023-03-05T14:52:17.312Z,100067.31
2023-03-05T14:55:33.804Z,100065.66
2023-03-05T14:58:39.097Z,100058.09
2023-03-05T15:01:45.620Z,100053.91
2023-03-05T15:04:51.202Z,100048.91
2023-03-05T15:07:56.394Z,100053.09
2023-03-05T15:11:03.577Z,100048.88
2023-03-05T15:14:08.587Z,100043.06
2023-03-05T15:17:21.685Z,100043.88
2023-03-05T15:20:28.468Z,100057.28
2023-03-05T15:23:37.504Z,100047.25
2023-03-05T15:26:42.800Z,100048.91
2023-03-05T15:29:47.997Z,100042.22
2023-03-05T15:32:55.754Z,100054.75
2023-03-05T15:36:01.313Z,100040.53
2023-03-05T15:39:07.259Z,100047.22
2023-03-05T15:42:13.130Z,100049.72
2023-03-05T15:45:18.785Z,100049.69
2023-03-05T15:48:25.334Z,100037.16
2023-03-05T15:51:30.431Z,100040.50
2023-03-05T15:54:37.534Z,100032.16
2023-03-05T15:57:45.794Z,100036.31
2023-03-05T16:00:50.971Z,100043.00
2023-03-05T16:03:57.480Z,100038.00
2023-03-05T16:07:07.456Z,100031.31
2023-03-05T16:10:14.372Z,100041.31
2023-03-05T16:13:21.745Z,100040.47
2023-03-05T16:16:27.115Z,100037.94
2023-03-05T16:19:35.393Z,100032.97
2023-03-05T16:22:40.925Z,100038.00
2023-03-05T16:25:46.289Z,100039.66
2023-03-05T16:28:51.440Z,100035.50
2023-03-05T16:31:56.890Z,100026.25
2023-03-05T16:35:03.376Z,100030.44
2023-03-05T16:38:09.422Z,100023.75
2023-03-05T16:41:16.986Z,100035.47
2023-03-05T16:44:23.028Z,100024.59
2023-03-05T16:47:30.557Z,100032.16
2023-03-05T16:50:38.071Z,100047.19
2023-03-05T16:53:45.624Z,100043.88
2023-03-05T16:56:50.705Z,100038.03
2023-03-05T16:59:56.857Z,100035.50
2023-03-05T17:03:02.293Z,100033.00
2023-03-05T17:06:12.739Z,100042.22
2023-03-05T17:09:19.350Z,100049.75
2023-03-05T17:12:25.311Z,100042.19
2023-03-05T17:15:30.785Z,100046.38
2023-03-05T17:18:35.985Z,100043.84
2023-03-05T17:21:42.902Z,100055.59
2023-03-05T17:24:48.181Z,100057.25
2023-03-05T17:27:54.018Z,100058.91
2023-03-05T17:31:01.383Z,100060.56
2023-03-05T17:34:06.866Z,100073.06
2023-03-05T17:37:13.094Z,100083.03
2023-03-05T17:40:18.887Z,100080.53
2023-03-05T17:43:24.385Z,100091.31
2023-03-05T17:46:29.461Z,100082.81
2023-03-05T17:49:34.615Z,100076.91
2023-03-05T17:52:41.503Z,100078.47
2023-03-05T17:55:46.856Z,100083.50
2023-03-05T17:58:52.478Z,100086.84
2023-03-05T18:01:57.726Z,100077.69
2023-03-05T18:05:04.212Z,100065.97
2023-03-05T18:08:14.521Z,100077.63
2023-03-05T18:11:20.034Z,100080.16
2023-03-05T18:14:26.057Z,100094.28
2023-03-05T18:17:31.382Z,100080.09
2023-03-05T18:20:38.235Z,100090.94
2023-03-05T18:23:44.594Z,100090.03
2023-03-05T18:26:49.926Z,100093.47
2023-03-05T18:29:55.706Z,100073.41
2023-03-05T18:33:03.938Z,100090.97
2023-03-05T18:36:10.850Z,100082.56
2023-03-05T18:39:18.724Z,100085.91
2023-03-05T18:42:23.839Z,100085.91
2023-03-05T18:45:29.438Z,100086.75
2023-03-05T18:48:34.502Z,100085.94
2023-03-05T18:51:40.917Z,100080.16
2023-03-05T18:54:47.470Z,100075.97
2023-03-05T18:57:53.551Z,100076.81
2023-03-05T19:00:58.775Z,100082.69
2023-03-05T19:04:04.214Z,100088.53
2023-03-05T19:07:09.707Z,100082.75
2023-03-05T19:10:17.703Z,100091.94
2023-03-05T19:13:34.839Z,100081.09
2023-03-05T19:16:44.045Z,100080.19
2023-03-05T19:19:53.029Z,100076.88
2023-03-05T19:22:58.142Z,100077.72
2023-03-05T19:26:05.090Z,100071.00
2023-03-05T19:29:11.375Z,100079.34
2023-03-05T19:32:17.819Z,100086.03
2023-03-05T19:35:23.294Z,100087.75
2023-03-05T19:38:28.901Z,100078.50
2023-03-05T19:41:35.627Z,100091.81
2023-03-05T19:44:40.805Z,100076.81
2023-03-05T19:47:45.869Z,100086.88
2023-03-05T19:50:51.119Z,100079.41
2023-03-05T19:53:59.037Z,100070.22
2023-03-05T19:57:05.362Z,100074.28
2023-03-05T20:00:14.270Z,100077.59
2023-03-05T20:03:19.572Z,100063.41
2023-03-05T20:06:26.101Z,100072.44
2023-03-05T20:09:31.555Z,100080.75
2023-03-05T20:12:39.286Z,100078.28
2023-03-05T20:15:44.828Z,100068.13
2023-03-05T20:18:52.915Z,100071.59
2023-03-05T20:21:58.319Z,100067.38
2023-03-05T20:25:03.386Z,100063.16
2023-03-05T20:28:10.086Z,100050.75
2023-03-05T20:31:16.079Z,100063.22
2023-03-05T20:34:22.453Z,100061.59
2023-03-05T20:37:40.031Z,100054.94
2023-03-05T20:40:45.113Z,100051.78
2023-03-05T20:43:52.448Z,100053.47
2023-03-05T20:47:12.568Z,100050.94
2023-03-05T20:50:17.890Z,100060.13
2023-03-05T20:53:23.274Z,100055.03
2023-03-05T20:56:28.640Z,100051.63
2023-03-05T20:59:35.169Z,100055.84
2023-03-05T21:02:41.011Z,100067.44
2023-03-05T21:05:46.930Z,100060.72
2023-03-05T21:08:52.194Z,100057.44
2023-03-05T21:11:57.675Z,100050.78
2023-03-05T21:15:04.211Z,100052.50
2023-03-05T21:18:09.544Z,100056.44
2023-03-05T21:21:15.032Z,100067.31
2023-03-05T21:24:21.782Z,100057.25
2023-03-05T21:27:27.114Z,100054.84
2023-03-05T21:30:35.440Z,100052.28
2023-03-05T21:33:41.092Z,100041.28
2023-03-05T21:36:46.190Z,100042.94
2023-03-05T21:39:51.316Z,100041.97
2023-03-05T21:42:57.558Z,100042.81
2023-03-05T21:46:04.881Z,100044.25
2023-03-05T21:49:11.098Z,100039.28
2023-03-05T21:52:16.224Z,100036.81
2023-03-05T21:55:25.056Z,100032.63
2023-03-05T21:58:30.592Z,100040.06
2023-03-05T22:01:37.111Z,100040.91
2023-03-05T22:04:42.133Z,100037.47
2023-03-05T22:07:47.341Z,100044.16
2023-03-05T22:10:52.872Z,100039.06
2023-03-05T22:13:58.102Z,100035.06
2023-03-05T22:17:05.221Z,100023.28
2023-03-05T22:20:13.706Z,100029.97
2023-03-05T22:23:22.242Z,100024.16
2023-03-05T22:26:28.498Z,100025.81
2023-03-05T22:29:33.930Z,100014.97
2023-03-05T22:32:41.905Z,100014.28
2023-03-05T22:35:47.282Z,100022.56
2023-03-05T22:38:52.392Z,100023.44
2023-03-05T22:42:00.052Z,100016.72
2023-03-05T22:45:06.491Z,100013.19
2023-03-05T22:48:15.439Z,100019.06
2023-03-05T22:51:21.266Z,100023.19
2023-03-05T22:54:26.446Z,100021.53
2023-03-05T22:57:31.653Z,100014.09
2023-03-05T23:00:36.909Z,100014.16
2023-03-05T23:03:44.244Z,100010.63
2023-03-05T23:06:49.758Z,100002.41
2023-03-05T23:09:56.960Z,100010.63
2023-03-05T23:13:03.562Z,100013.03
2023-03-05T23:16:11.277Z,99994.94
2023-03-05T23:19:17.726Z,100010.44
2023-03-05T23:22:23.627Z,100005.44
2023-03-05T23:25:31.873Z,100014.66
2023-03-05T23:28:37.300Z,100005.31
2023-03-05T23:31:42.334Z,100010.28
2023-03-05T23:34:48.785Z,100005.25
2023-03-05T23:37:55.068Z,100004.16
2023-03-05T23:41:03.435Z,100007.59
2023-03-05T23:44:08.540Z,99991.91
2023-03-05T23:47:13.956Z,99994.69
2023-03-05T23:50:22.578Z,99999.66
2023-03-05T23:53:29.043Z,99991.59
2023-03-05T23:56:34.349Z,99997.41
2023-03-05T23:59:39.701Z,99992.97
